createdAt,value
2018-06-24T00:01:04.394Z,4.80
2018-06-24T00:03:38.588Z,4.00
2018-06-24T00:06:13.655Z,3.80
2018-06-24T00:08:48.098Z,3.57
2018-06-24T00:11:22.616Z,4.53
2018-06-24T00:13:57.444Z,4.07
2018-06-24T00:16:32.281Z,4.70
2018-06-24T00:19:07.097Z,4.97
2018-06-24T00:21:41.339Z,4.50
2018-06-24T00:24:16.343Z,4.13
2018-06-24T00:26:50.632Z,4.00
2018-06-24T00:29:25.486Z,3.90
2018-06-24T00:31:59.945Z,4.00
2018-06-24T00:34:34.652Z,5.03
2018-06-24T00:37:09.389Z,3.93
2018-06-24T00:39:44.321Z,3.57
2018-06-24T00:42:18.666Z,4.50
2018-06-24T00:44:53.656Z,3.80
2018-06-24T00:47:27.920Z,3.60
2018-06-24T00:50:02.963Z,4.50
2018-06-24T00:52:37.348Z,4.23
2018-06-24T00:55:12.373Z,5.20
2018-06-24T00:57:46.781Z,4.57
2018-06-24T01:00:21.501Z,3.77
2018-06-24T01:02:56.101Z,5.07
2018-06-24T01:05:31.073Z,4.00
2018-06-24T01:08:05.425Z,4.70
2018-06-24T01:10:40.126Z,4.10
2018-06-24T01:13:14.748Z,4.07
2018-06-24T01:15:49.780Z,5.07
2018-06-24T01:18:24.317Z,4.80
2018-06-24T01:20:59.596Z,4.10
2018-06-24T01:23:34.563Z,5.10
2018-06-24T01:26:09.446Z,4.87
2018-06-24T01:28:43.721Z,4.50
2018-06-24T01:31:18.225Z,3.70
2018-06-24T01:33:52.921Z,4.07
2018-06-24T01:36:27.423Z,3.97
2018-06-24T01:39:01.941Z,4.30
2018-06-24T01:41:36.877Z,3.20
2018-06-24T01:44:11.210Z,4.40
2018-06-24T01:46:45.946Z,3.67
2018-06-24T01:49:20.981Z,3.97
2018-06-24T01:51:55.321Z,4.13
2018-06-24T01:54:29.983Z,4.47
2018-06-24T01:57:04.818Z,3.50
2018-06-24T01:59:39.180Z,4.20
2018-06-24T02:02:13.851Z,4.20
2018-06-24T02:04:48.454Z,4.13
2018-06-24T02:07:23.343Z,4.10
2018-06-24T02:09:57.711Z,4.47
2018-06-24T02:12:32.805Z,4.70
2018-06-24T02:15:07.190Z,3.80
2018-06-24T02:17:42.059Z,4.00
2018-06-24T02:20:17.834Z,4.13
2018-06-24T02:22:52.191Z,5.07
2018-06-24T02:25:27.871Z,3.70
2018-06-24T02:28:02.457Z,5.07
2018-06-24T02:30:37.462Z,4.20
2018-06-24T02:33:12.276Z,4.40
2018-06-24T02:35:46.717Z,4.53
2018-06-24T02:38:22.240Z,4.90
2018-06-24T02:40:57.203Z,4.43
2018-06-24T02:43:31.835Z,4.47
2018-06-24T02:46:07.092Z,4.67
2018-06-24T02:48:41.980Z,4.73
2018-06-24T02:51:16.431Z,4.93
2018-06-24T02:53:50.718Z,3.93
2018-06-24T02:56:25.212Z,4.30
2018-06-24T02:58:59.883Z,3.47
2018-06-24T03:01:34.884Z,3.87
2018-06-24T03:04:09.427Z,4.40
2018-06-24T03:06:43.590Z,4.70
2018-06-24T03:09:18.318Z,4.73
2018-06-24T03:11:52.962Z,3.77
2018-06-24T03:14:27.936Z,4.30
2018-06-24T03:17:02.999Z,5.10
2018-06-24T03:19:38.267Z,3.67
2018-06-24T03:22:19.944Z,4.60
2018-06-24T03:24:55.347Z,4.87
2018-06-24T03:27:30.560Z,4.30
2018-06-24T03:30:05.272Z,5.17
2018-06-24T03:32:40.008Z,5.27
2018-06-24T03:35:14.854Z,6.10
2018-06-24T03:37:49.290Z,5.33
2018-06-24T03:40:23.654Z,5.00
2018-06-24T03:42:58.229Z,5.37
2018-06-24T03:45:32.958Z,5.03
2018-06-24T03:48:07.893Z,5.43
2018-06-24T03:50:42.157Z,7.87
2018-06-24T03:53:16.985Z,6.90
2018-06-24T03:55:51.478Z,6.73
2018-06-24T03:58:26.302Z,6.23
2018-06-24T04:01:00.761Z,6.10
2018-06-24T04:03:35.489Z,5.27
2018-06-24T04:06:10.561Z,5.93
2018-06-24T04:08:44.666Z,6.13
2018-06-24T04:11:19.298Z,5.27
2018-06-24T04:13:54.043Z,5.13
2018-06-24T04:16:28.710Z,5.10
2018-06-24T04:19:03.476Z,4.73
2018-06-24T04:21:38.043Z,6.33
2018-06-24T04:24:13.365Z,5.93
2018-06-24T04:26:47.509Z,4.30
2018-06-24T04:29:22.432Z,5.10
2018-06-24T04:31:57.302Z,4.60
2018-06-24T04:34:32.459Z,5.83
2018-06-24T04:37:06.835Z,4.90
2018-06-24T04:39:41.671Z,5.33
2018-06-24T04:42:16.013Z,6.00
2018-06-24T04:44:50.866Z,5.73
2018-06-24T04:47:25.601Z,5.37
2018-06-24T04:50:00.415Z,7.50
2018-06-24T04:52:35.050Z,5.20
2018-06-24T04:55:09.815Z,5.30
2018-06-24T04:57:44.397Z,5.83
2018-06-24T05:00:19.369Z,5.07
2018-06-24T05:02:53.741Z,4.43
2018-06-24T05:05:28.871Z,5.23
2018-06-24T05:08:03.229Z,5.50
2018-06-24T05:10:37.977Z,5.87
2018-06-24T05:13:12.583Z,6.50
2018-06-24T05:15:47.379Z,5.37
2018-06-24T05:18:21.822Z,4.50
2018-06-24T05:20:56.312Z,5.10
2018-06-24T05:23:31.127Z,4.80
2018-06-24T05:26:05.955Z,5.00
2018-06-24T05:28:40.305Z,5.70
2018-06-24T05:31:15.035Z,4.20
2018-06-24T05:33:49.782Z,4.93
2018-06-24T05:36:24.460Z,4.43
2018-06-24T05:38:58.992Z,4.03
2018-06-24T05:41:34.050Z,3.80
2018-06-24T05:44:08.590Z,4.70
2018-06-24T05:46:42.984Z,4.60
2018-06-24T05:49:17.568Z,4.43
2018-06-24T05:51:52.372Z,4.87
2018-06-24T05:54:27.611Z,4.33
2018-06-24T05:57:03.004Z,3.63
2018-06-24T05:59:37.327Z,4.00
2018-06-24T06:02:12.165Z,3.70
2018-06-24T06:04:46.818Z,3.47
2018-06-24T06:07:21.683Z,3.80
2018-06-24T06:09:56.094Z,3.80
2018-06-24T06:12:30.791Z,3.80
2018-06-24T06:15:05.690Z,4.10
2018-06-24T06:17:40.096Z,3.37
2018-06-24T06:20:15.197Z,3.83
2018-06-24T06:22:49.323Z,4.37
2018-06-24T06:25:24.238Z,3.30
2018-06-24T06:27:58.889Z,3.60
2018-06-24T06:30:33.688Z,4.43
2018-06-24T06:33:08.435Z,3.93
2018-06-24T06:35:43.552Z,3.40
2018-06-24T06:38:18.034Z,5.40
2018-06-24T06:40:53.007Z,4.60
2018-06-24T06:43:28.203Z,3.60
2018-06-24T06:46:07.288Z,4.70
2018-06-24T06:48:41.998Z,5.23
2018-06-24T06:51:17.316Z,3.87
2018-06-24T06:53:51.731Z,4.73
2018-06-24T06:56:26.466Z,4.43
2018-06-24T06:59:01.380Z,4.40
2018-06-24T07:01:36.175Z,4.20
2018-06-24T07:04:11.031Z,4.43
2018-06-24T07:06:46.040Z,3.90
2018-06-24T07:09:21.907Z,3.60
2018-06-24T07:11:57.109Z,4.37
2018-06-24T07:14:31.524Z,4.03
2018-06-24T07:17:06.255Z,4.30
2018-06-24T07:19:40.642Z,3.63
2018-06-24T07:22:15.415Z,3.90
2018-06-24T07:24:49.602Z,5.10
2018-06-24T07:27:24.372Z,4.40
2018-06-24T07:29:58.598Z,4.70
2018-06-24T07:32:33.735Z,4.00
2018-06-24T07:35:08.891Z,4.60
2018-06-24T07:37:43.525Z,4.93
2018-06-24T07:40:18.199Z,4.20
2018-06-24T07:42:53.048Z,5.37
2018-06-24T07:45:27.661Z,5.10
2018-06-24T07:48:02.756Z,5.23
2018-06-24T07:50:37.934Z,4.60
2018-06-24T07:53:13.603Z,5.37
2018-06-24T07:55:48.258Z,4.47
2018-06-24T07:58:23.639Z,5.00
2018-06-24T08:00:58.312Z,4.50
2018-06-24T08:03:33.749Z,5.30
2018-06-24T08:06:08.478Z,4.30
2018-06-24T08:08:44.377Z,4.87
2018-06-24T08:11:18.860Z,3.83
2018-06-24T08:13:53.875Z,4.63
2018-06-24T08:16:28.806Z,4.90
2018-06-24T08:19:03.834Z,4.70
2018-06-24T08:21:39.364Z,4.20
2018-06-24T08:24:13.823Z,4.40
2018-06-24T08:26:48.113Z,4.30
2018-06-24T08:29:23.082Z,3.80
2018-06-24T08:31:59.880Z,4.27
2018-06-24T08:34:34.677Z,4.63
2018-06-24T08:37:10.872Z,4.33
2018-06-24T08:39:45.732Z,3.67
2018-06-24T08:42:20.707Z,3.40
2018-06-24T08:44:57.096Z,4.00
2018-06-24T08:47:32.089Z,3.40
2018-06-24T08:50:10.275Z,4.10
2018-06-24T08:52:45.243Z,4.43
2018-06-24T08:55:19.823Z,4.20
2018-06-24T08:57:54.250Z,4.13
2018-06-24T09:00:29.344Z,3.67
2018-06-24T09:03:04.732Z,3.50
2018-06-24T09:05:41.102Z,3.90
2018-06-24T09:08:16.022Z,4.50
2018-06-24T09:10:50.402Z,3.70
2018-06-24T09:13:25.885Z,3.70
2018-06-24T09:16:01.035Z,3.40
2018-06-24T09:18:36.664Z,3.53
2018-06-24T09:21:12.605Z,3.33
2018-06-24T09:23:48.401Z,2.80
2018-06-24T09:26:23.438Z,3.93
2018-06-24T09:28:58.558Z,3.10
2018-06-24T09:31:33.433Z,4.13
2018-06-24T09:34:07.865Z,4.30
2018-06-24T09:36:43.592Z,3.30
2018-06-24T09:39:18.719Z,4.03
2018-06-24T09:41:53.534Z,4.00
2018-06-24T09:44:27.934Z,4.10
2018-06-24T09:47:02.942Z,2.93
2018-06-24T09:49:37.971Z,3.33
2018-06-24T09:52:14.164Z,3.60
2018-06-24T09:54:49.306Z,4.33
2018-06-24T09:57:24.233Z,4.00
2018-06-24T10:00:00.166Z,3.50
2018-06-24T10:02:35.518Z,3.30
2018-06-24T10:05:10.967Z,3.40
2018-06-24T10:07:46.294Z,4.07
2018-06-24T10:10:23.182Z,3.23
2018-06-24T10:12:59.216Z,3.87
2018-06-24T10:15:34.392Z,3.90
2018-06-24T10:18:09.613Z,3.60
2018-06-24T10:20:45.380Z,3.43
2018-06-24T10:23:19.689Z,3.13
2018-06-24T10:25:55.681Z,3.17
2018-06-24T10:28:31.492Z,3.30
2018-06-24T10:31:06.490Z,3.40
2018-06-24T10:33:41.122Z,3.10
2018-06-24T10:36:16.354Z,3.33
2018-06-24T10:38:52.974Z,3.40
2018-06-24T10:41:28.564Z,4.00
2018-06-24T10:44:03.342Z,3.60
2018-06-24T10:46:38.535Z,3.07
2018-06-24T10:49:15.087Z,3.47
2018-06-24T10:51:50.415Z,3.47
2018-06-24T10:54:26.177Z,3.00
2018-06-24T10:57:01.283Z,6.77
2018-06-24T10:59:35.949Z,4.67
2018-06-24T11:02:11.342Z,3.80
2018-06-24T11:04:46.423Z,3.13
2018-06-24T11:07:22.768Z,3.97
2018-06-24T11:09:57.598Z,4.10
2018-06-24T11:12:33.104Z,3.70
2018-06-24T11:15:07.733Z,3.93
2018-06-24T11:17:44.827Z,3.50
2018-06-24T11:20:19.840Z,4.00
2018-06-24T11:22:55.085Z,3.67
2018-06-24T11:25:30.305Z,3.60
2018-06-24T11:28:06.699Z,2.90
2018-06-24T11:30:42.048Z,3.33
2018-06-24T11:33:16.431Z,3.87
2018-06-24T11:35:51.072Z,3.57
2018-06-24T11:38:25.828Z,3.00
2018-06-24T11:41:00.455Z,3.50
2018-06-24T11:43:34.961Z,3.43
2018-06-24T11:46:10.475Z,3.60
2018-06-24T11:48:45.790Z,3.67
2018-06-24T11:51:21.083Z,3.60
2018-06-24T11:53:56.386Z,3.40
2018-06-24T11:56:31.181Z,4.00
2018-06-24T11:59:05.865Z,3.37
2018-06-24T12:01:40.709Z,4.10
2018-06-24T12:04:16.086Z,3.10
2018-06-24T12:06:51.343Z,3.73
2018-06-24T12:09:26.026Z,3.27
2018-06-24T12:12:00.296Z,2.57
2018-06-24T12:14:35.365Z,2.87
2018-06-24T12:17:09.583Z,3.07
2018-06-24T12:19:44.072Z,3.70
2018-06-24T12:22:18.770Z,3.77
2018-06-24T12:24:53.115Z,3.33
2018-06-24T12:27:28.507Z,2.60
2018-06-24T12:30:03.059Z,2.90
2018-06-24T12:32:37.442Z,2.93
2018-06-24T12:35:11.936Z,4.23
2018-06-24T12:37:46.399Z,3.53
2018-06-24T12:40:26.860Z,2.67
2018-06-24T12:43:03.465Z,2.40
2018-06-24T12:45:38.544Z,2.63
2018-06-24T12:48:13.436Z,2.50
2018-06-24T12:50:47.940Z,2.13
2018-06-24T12:53:22.620Z,2.67
2018-06-24T12:55:57.151Z,2.87
2018-06-24T12:58:31.888Z,2.80
2018-06-24T13:01:06.485Z,2.83
2018-06-24T13:03:41.407Z,2.57
2018-06-24T13:06:15.961Z,2.57
2018-06-24T13:08:50.680Z,3.10
2018-06-24T13:11:26.628Z,2.70
2018-06-24T13:14:02.015Z,2.87
2018-06-24T13:16:36.341Z,3.73
2018-06-24T13:19:11.236Z,3.10
2018-06-24T13:21:45.601Z,4.50
2018-06-24T13:24:20.667Z,3.00
2018-06-24T13:26:55.736Z,3.80
2018-06-24T13:29:30.763Z,3.00
2018-06-24T13:32:05.153Z,3.40
2018-06-24T13:34:39.615Z,4.37
2018-06-24T13:37:14.340Z,4.60
2018-06-24T13:39:49.528Z,2.70
2018-06-24T13:42:24.768Z,3.60
2018-06-24T13:44:59.704Z,2.83
2018-06-24T13:47:34.348Z,3.10
2018-06-24T13:50:08.773Z,2.70
2018-06-24T13:52:43.453Z,2.63
2018-06-24T13:55:18.092Z,3.00
2018-06-24T13:57:52.904Z,3.10
2018-06-24T14:00:27.311Z,2.40
2018-06-24T14:03:01.769Z,2.70
2018-06-24T14:05:36.489Z,2.73
2018-06-24T14:08:11.148Z,2.67
2018-06-24T14:10:45.744Z,3.20
2018-06-24T14:13:20.369Z,3.07
2018-06-24T14:15:55.169Z,2.90
2018-06-24T14:18:29.689Z,3.67
2018-06-24T14:21:04.361Z,3.30
2018-06-24T14:23:38.903Z,2.50
2018-06-24T14:26:13.609Z,2.80
2018-06-24T14:28:48.155Z,2.40
2018-06-24T14:31:22.960Z,2.80
2018-06-24T14:33:57.972Z,2.83
2018-06-24T14:36:33.266Z,3.40
2018-06-24T14:39:09.259Z,2.87
2018-06-24T14:41:44.430Z,2.90
2018-06-24T14:44:18.869Z,3.60
2018-06-24T14:46:54.114Z,2.47
2018-06-24T14:49:28.967Z,2.30
2018-06-24T14:52:04.001Z,2.30
2018-06-24T14:54:38.578Z,3.00
2018-06-24T14:57:13.379Z,3.77
2018-06-24T14:59:47.830Z,2.80
2018-06-24T15:02:22.803Z,2.80
2018-06-24T15:04:57.069Z,2.50
2018-06-24T15:07:31.948Z,2.73
2018-06-24T15:10:06.218Z,4.50
2018-06-24T15:12:40.759Z,2.20
2018-06-24T15:15:15.416Z,3.20
2018-06-24T15:17:50.050Z,2.93
2018-06-24T15:20:24.581Z,2.67
2018-06-24T15:22:59.304Z,2.77
2018-06-24T15:25:34.578Z,2.63
2018-06-24T15:28:10.287Z,3.07
2018-06-24T15:30:45.483Z,2.70
2018-06-24T15:33:19.847Z,2.70
2018-06-24T15:35:54.679Z,2.70
2018-06-24T15:38:29.416Z,2.20
2018-06-24T15:41:04.348Z,2.50
2018-06-24T15:43:38.819Z,4.00
2018-06-24T15:46:13.560Z,3.67
2018-06-24T15:48:48.338Z,2.50
2018-06-24T15:51:22.849Z,2.50
2018-06-24T15:53:57.735Z,2.43
2018-06-24T15:56:32.299Z,3.23
2018-06-24T15:59:07.210Z,2.33
2018-06-24T16:01:41.899Z,2.83
2018-06-24T16:04:16.687Z,2.60
2018-06-24T16:06:51.384Z,2.00
2018-06-24T16:09:26.996Z,2.50
2018-06-24T16:12:01.799Z,3.13
2018-06-24T16:14:36.656Z,2.57
2018-06-24T16:17:11.213Z,2.70
2018-06-24T16:19:46.113Z,2.60
2018-06-24T16:22:20.513Z,2.33
2018-06-24T16:24:55.337Z,2.40
2018-06-24T16:27:29.657Z,2.50
2018-06-24T16:30:04.705Z,2.70
2018-06-24T16:32:39.551Z,2.17
2018-06-24T16:35:14.964Z,2.17
2018-06-24T16:37:49.682Z,2.40
2018-06-24T16:40:24.547Z,2.70
2018-06-24T16:42:59.031Z,2.20
2018-06-24T16:45:33.836Z,2.10
2018-06-24T16:48:08.324Z,2.50
2018-06-24T16:50:43.150Z,5.27
2018-06-24T16:53:17.618Z,3.90
2018-06-24T16:55:52.188Z,2.60
2018-06-24T16:58:27.863Z,2.87
2018-06-24T17:01:02.305Z,2.23
2018-06-24T17:03:36.949Z,2.47
2018-06-24T17:06:11.936Z,2.67
2018-06-24T17:08:47.158Z,2.73
2018-06-24T17:11:21.648Z,2.47
2018-06-24T17:13:56.365Z,3.00
2018-06-24T17:16:30.987Z,2.60
2018-06-24T17:19:06.156Z,2.67
2018-06-24T17:21:41.163Z,2.50
2018-06-24T17:24:15.598Z,3.70
2018-06-24T17:26:50.244Z,3.77
2018-06-24T17:29:24.696Z,3.30
2018-06-24T17:31:59.382Z,2.47
2018-06-24T17:34:33.898Z,2.60
2018-06-24T17:37:08.689Z,2.77
2018-06-24T17:39:43.256Z,2.23
2018-06-24T17:42:18.269Z,2.40
2018-06-24T17:44:52.729Z,2.27
2018-06-24T17:47:27.497Z,2.30
2018-06-24T17:50:02.701Z,2.53
2018-06-24T17:52:38.833Z,2.03
2018-06-24T17:55:13.415Z,2.90
2018-06-24T17:57:48.043Z,2.27
2018-06-24T18:00:23.423Z,2.60
2018-06-24T18:02:59.180Z,2.30
2018-06-24T18:05:33.818Z,2.60
2018-06-24T18:08:08.329Z,2.73
2018-06-24T18:10:42.945Z,2.33
2018-06-24T18:13:17.434Z,2.87
2018-06-24T18:15:52.084Z,2.60
2018-06-24T18:18:27.041Z,2.13
2018-06-24T18:21:01.351Z,2.40
2018-06-24T18:23:36.459Z,2.10
2018-06-24T18:26:11.224Z,2.17
2018-06-24T18:28:45.708Z,2.60
2018-06-24T18:31:20.050Z,2.33
2018-06-24T18:33:55.583Z,2.00
2018-06-24T18:36:31.158Z,2.13
2018-06-24T18:39:08.607Z,2.13
2018-06-24T18:41:43.773Z,2.30
2018-06-24T18:44:19.225Z,1.90
2018-06-24T18:46:54.204Z,1.70
2018-06-24T18:49:28.886Z,2.27
2018-06-24T18:52:03.377Z,1.97
2018-06-24T18:54:37.958Z,1.70
2018-06-24T18:57:12.764Z,2.23
2018-06-24T18:59:47.148Z,2.10
2018-06-24T19:02:22.449Z,1.97
2018-06-24T19:04:57.980Z,2.30
2018-06-24T19:07:32.961Z,2.40
2018-06-24T19:10:08.231Z,2.17
2018-06-24T19:12:43.250Z,2.07
2018-06-24T19:15:19.756Z,2.47
2018-06-24T19:17:54.780Z,2.00
2018-06-24T19:20:30.594Z,2.47
2018-06-24T19:23:07.203Z,1.70
2018-06-24T19:25:43.055Z,2.53
2018-06-24T19:28:17.900Z,2.33
2018-06-24T19:30:52.671Z,2.27
2018-06-24T19:33:27.155Z,2.60
2018-06-24T19:36:02.191Z,2.20
2018-06-24T19:38:36.704Z,1.97
2018-06-24T19:41:11.770Z,2.40
2018-06-24T19:43:46.460Z,2.00
2018-06-24T19:46:21.219Z,2.30
2018-06-24T19:48:55.658Z,2.00
2018-06-24T19:51:30.956Z,1.93
2018-06-24T19:54:08.252Z,2.07
2018-06-24T19:56:43.448Z,1.77
2018-06-24T19:59:18.009Z,2.00
2018-06-24T20:01:53.251Z,2.63
2018-06-24T20:04:28.367Z,2.70
2018-06-24T20:07:03.225Z,1.90
2018-06-24T20:09:38.004Z,2.20
2018-06-24T20:12:12.427Z,2.00
2018-06-24T20:14:47.253Z,2.30
2018-06-24T20:17:21.889Z,1.90
2018-06-24T20:19:56.987Z,2.00
2018-06-24T20:22:32.197Z,2.33
2018-06-24T20:25:06.639Z,1.97
2018-06-24T20:27:41.563Z,2.27
2018-06-24T20:30:16.498Z,2.07
2018-06-24T20:32:51.079Z,2.10
2018-06-24T20:35:25.411Z,1.87
2018-06-24T20:38:00.751Z,2.93
2018-06-24T20:40:35.839Z,2.23
2018-06-24T20:43:10.702Z,2.03
2018-06-24T20:45:45.761Z,2.40
2018-06-24T20:48:20.913Z,2.00
2018-06-24T20:50:56.095Z,2.97
2018-06-24T20:53:30.730Z,2.80
2018-06-24T20:56:05.954Z,2.40
2018-06-24T20:58:40.050Z,2.70
2018-06-24T21:01:14.908Z,2.80
2018-06-24T21:03:49.766Z,2.50
2018-06-24T21:06:24.298Z,2.37
2018-06-24T21:08:59.068Z,2.47
2018-06-24T21:11:33.448Z,2.40
2018-06-24T21:14:08.133Z,2.33
2018-06-24T21:16:42.879Z,2.00
2018-06-24T21:19:17.581Z,2.30
2018-06-24T21:21:52.371Z,2.47
2018-06-24T21:24:36.672Z,2.13
2018-06-24T21:27:11.412Z,2.20
2018-06-24T21:29:46.638Z,2.20
2018-06-24T21:32:21.132Z,2.07
2018-06-24T21:34:55.965Z,2.00
2018-06-24T21:37:30.242Z,2.40
2018-06-24T21:40:05.213Z,2.47
2018-06-24T21:42:39.656Z,2.27
2018-06-24T21:45:14.603Z,2.90
2018-06-24T21:47:49.015Z,2.27
2018-06-24T21:50:24.838Z,2.60
2018-06-24T21:52:59.605Z,2.90
2018-06-24T21:55:34.717Z,2.33
2018-06-24T21:58:08.938Z,2.50
2018-06-24T22:00:43.786Z,2.27
2018-06-24T22:03:18.507Z,2.33
2018-06-24T22:05:52.933Z,2.27
2018-06-24T22:08:27.661Z,3.77
2018-06-24T22:11:02.466Z,2.57
2018-06-24T22:13:37.406Z,2.70
2018-06-24T22:16:12.092Z,2.83
2018-06-24T22:18:46.430Z,3.10
2018-06-24T22:21:21.171Z,2.23
2018-06-24T22:23:56.025Z,2.43
2018-06-24T22:26:30.684Z,2.50
2018-06-24T22:29:05.597Z,2.57
2018-06-24T22:31:40.349Z,3.00
2018-06-24T22:34:15.141Z,2.57
2018-06-24T22:36:49.700Z,2.70
2018-06-24T22:39:24.466Z,3.10
2018-06-24T22:41:59.215Z,2.93
2018-06-24T22:44:34.061Z,3.23
2018-06-24T22:47:08.367Z,3.57
2018-06-24T22:49:43.110Z,2.50
2018-06-24T22:52:17.499Z,3.80
2018-06-24T22:54:52.456Z,3.60
2018-06-24T22:57:27.104Z,3.10
2018-06-24T23:00:16.303Z,3.97
2018-06-24T23:02:50.500Z,3.73
2018-06-24T23:05:25.357Z,3.80
2018-06-24T23:08:00.052Z,4.50
2018-06-24T23:10:34.974Z,4.10
2018-06-24T23:13:09.547Z,3.93
2018-06-24T23:15:44.531Z,4.73
2018-06-24T23:18:18.977Z,3.47
2018-06-24T23:20:54.008Z,4.60
2018-06-24T23:23:28.307Z,4.23
2018-06-24T23:26:03.171Z,4.13
2018-06-24T23:28:37.535Z,4.17
2018-06-24T23:31:12.238Z,4.90
2018-06-24T23:33:47.062Z,4.47
2018-06-24T23:36:21.560Z,5.57
2018-06-24T23:38:56.258Z,5.10
2018-06-24T23:41:31.725Z,4.30
2018-06-24T23:44:06.416Z,5.77
2018-06-24T23:46:41.170Z,5.10
2018-06-24T23:49:15.741Z,4.80
2018-06-24T23:51:50.539Z,5.00
2018-06-24T23:54:25.041Z,5.03
2018-06-24T23:56:59.829Z,5.63
2018-06-24T23:59:34.820Z,6.43
